ADDS METAR Data INFO
IDs: Format: Raw Decoded Include TAF

Data at: 2258 UTC 16 Jan 2018

KMGM 162253Z 32012KT 10SM OVC024 04/M02 A3042 RMK AO2 SLP301 T00441017
KMGM 162236Z 30010KT 10SM BKN025 OVC037 04/M02 A3041 RMK AO2 T00441017
KMGM 162153Z 31006KT 10SM OVC035 04/M02 A3041 RMK AO2 SLP300 T00441017
KMGM 162053Z 30007KT 10SM OVC035 04/M01 A3041 RMK AO2 SLP299 T00441011 55007
KMGM 161953Z 29008KT 10SM FEW026 OVC033 04/M01 A3041 RMK AO2 SLP298 T00441011
KMGM 161853Z 30009KT 10SM OVC033 06/M01 A3043 RMK AO2 SLP304 T00561011 $
KMGM 161753Z 26008KT 10SM OVC038 07/01 A3043 RMK AO2 SLP307 T00670006 10089 21028 56010 $
KMGM 161653Z 25006KT 10SM BKN041 OVC060 08/01 A3045 RMK AO2 SLP311 T00830006 $
KMGM 161553Z 08003KT 10SM CLR 07/00 A3045 RMK AO2 SLP312 T00720000 $
KMGM 161453Z 00000KT 10SM CLR 02/M01 A3046 RMK AO2 SLP317 T00221006 53018 $
KMGM 161353Z 32003KT 10SM CLR 00/M03 A3044 RMK AO2 SLP309 T00001028 $
KMGM 161253Z 00000KT 10SM CLR M02/M05 A3041 RMK AO2 SLP299 T10221050 $
KMGM 161153Z AUTO 10003KT 10SM CLR M02/M04 A3041 RMK AO2 SLP298 T10171044 10011 21022 55000 $
KMGM 161053Z AUTO 10003KT 10SM CLR M02/M04 A3040 RMK AO2 SLP297 T10171044 $
KMGM 160953Z AUTO 00000KT 10SM CLR M01/M03 A3040 RMK AO2 SLP296 T10061033 $
KMGM 160853Z AUTO 00000KT 10SM CLR M01/M04 A3041 RMK AO2 SLP299 T10111039 53000 $
KMGM 160753Z AUTO 00000KT 10SM CLR M01/M04 A3041 RMK AO2 SLP298 T10061039 $
KMGM 160653Z AUTO 00000KT 10SM CLR 00/M03 A3040 RMK AO2 SLP294 T00001033 $
KMGM 160553Z AUTO 00000KT 10SM CLR 00/M03 A3041 RMK AO2 SLP298 T00001033 10072 21006 401221033 58001 $
KMGM 160453Z AUTO 00000KT 10SM CLR 02/M03 A3041 RMK AO2 SLP299 T00221028 $
KMGM 160353Z 07003KT 10SM CLR 03/M03 A3042 RMK AO2 SLP301 T00281028 $
KMGM 160253Z 00000KT 10SM CLR 03/M03 A3041 RMK AO2 SLP299 T00331028 53006 $
KMGM 160153Z 00000KT 10SM CLR 04/M03 A3041 RMK AO2 SLP297 T00441033 $
KMGM 160053Z 00000KT 10SM CLR 06/M03 A3039 RMK AO2 SLP293 T00611028 $
KMGM 152353Z 00000KT 10SM CLR 06/M03 A3039 RMK AO2 SLP293 T00611028 10122 20061 53003 $
KMGM 152253Z 07003KT 10SM CLR 10/M04 A3038 RMK AO2 SLP289 T01001039 $
KMGM 152153Z VRB03KT 10SM CLR 12/M04 A3038 RMK AO2 SLP288 T01221039 $
KMGM 152053Z 23004KT 10SM CLR 12/M04 A3039 RMK AO2 SLP290 T01221039 56024 $
KMGM 151953Z VRB04KT 10SM CLR 12/M04 A3040 RMK AO2 SLP296 T01171044 $
KMGM 151853Z VRB03KT 10SM CLR 11/M06 A3042 RMK AO2 SLP303 T01061056 $
KMGM 151753Z 00000KT 10SM CLR 10/M06 A3046 RMK AO2 SLP314 T01001056 10106 21028 58021 $
KMGM 151653Z VRB04KT 10SM CLR 08/M06 A3049 RMK AO2 SLP327 T00831056 $
KMGM 151553Z 15006KT 10SM CLR 06/M05 A3051 RMK AO2 SLP331 T00611050 $
KMGM 151453Z 09005KT 10SM CLR 03/M05 A3052 RMK AO2 SLP335 T00281050 51013 $
KMGM 151353Z 07003KT 10SM BKN043 01/M04 A3052 RMK AO2 SLP335 T00061039 $
KMGM 151253Z 00000KT 10SM CLR M02/M06 A3050 RMK AO2 SLP330 T10171056 $
KMGM 151153Z 36003KT 10SM CLR M02/M06 A3048 RMK AO2 SLP324 T10221056 10017 21033 53012 $